createdAt,value
2018-02-21T00:00:03.292Z,27.90
2018-02-21T00:02:31.548Z,27.83
2018-02-21T00:05:00.365Z,28.70
2018-02-21T00:07:29.486Z,28.07
2018-02-21T00:09:57.967Z,27.13
2018-02-21T00:12:27.966Z,24.80
2018-02-21T00:14:55.907Z,24.97
2018-02-21T00:17:24.685Z,23.83
2018-02-21T00:19:53.425Z,23.30
2018-02-21T00:22:21.325Z,21.80
2018-02-21T00:24:49.406Z,23.63
2018-02-21T00:27:17.405Z,26.37
2018-02-21T00:29:45.557Z,24.10
2018-02-21T00:32:13.925Z,24.73
2018-02-21T00:34:41.888Z,24.07
2018-02-21T00:37:09.747Z,22.60
2018-02-21T00:39:38.053Z,25.70
2018-02-21T00:42:06.951Z,25.10
2018-02-21T00:44:34.851Z,25.70
2018-02-21T00:47:02.870Z,26.03
2018-02-21T00:49:31.531Z,26.17
2018-02-21T00:51:59.469Z,27.17
2018-02-21T00:54:27.850Z,26.63
2018-02-21T00:56:55.610Z,24.53
2018-02-21T00:59:23.869Z,26.10
2018-02-21T01:01:52.525Z,23.87
2018-02-21T01:04:20.725Z,23.03
2018-02-21T01:06:49.006Z,23.40
2018-02-21T01:09:17.025Z,24.47
2018-02-21T01:11:44.869Z,24.03
2018-02-21T01:14:12.748Z,24.33
2018-02-21T01:16:40.565Z,25.33
2018-02-21T01:19:08.786Z,27.23
2018-02-21T01:21:36.945Z,26.30
2018-02-21T01:24:05.911Z,27.00
2018-02-21T01:26:34.165Z,27.07
2018-02-21T01:29:02.445Z,28.60
2018-02-21T01:31:30.465Z,30.20
2018-02-21T01:33:59.105Z,30.43
2018-02-21T01:36:27.225Z,30.00
2018-02-21T01:38:55.725Z,31.10
2018-02-21T01:41:23.485Z,31.87
2018-02-21T01:43:52.147Z,31.53
2018-02-21T01:46:19.986Z,31.40
2018-02-21T01:48:47.866Z,31.67
2018-02-21T01:51:15.742Z,30.67
2018-02-21T01:53:43.567Z,28.80
2018-02-21T01:56:12.246Z,28.97
2018-02-21T01:58:41.245Z,29.03
2018-02-21T02:01:10.053Z,29.30
2018-02-21T02:03:37.873Z,28.23
2018-02-21T02:06:05.833Z,30.23
2018-02-21T02:08:33.794Z,31.07
2018-02-21T02:11:01.913Z,31.83
2018-02-21T02:13:29.813Z,30.63
2018-02-21T02:15:58.373Z,30.90
2018-02-21T02:18:26.553Z,28.53
2018-02-21T02:20:54.714Z,29.50
2018-02-21T02:23:22.533Z,28.73
2018-02-21T02:25:50.413Z,30.10
2018-02-21T02:28:18.861Z,31.70
2018-02-21T02:30:46.713Z,29.50
2018-02-21T02:33:16.533Z,31.33
2018-02-21T02:35:44.356Z,33.53
2018-02-21T02:38:23.933Z,31.87
2018-02-21T02:40:52.134Z,32.63
2018-02-21T02:43:20.333Z,31.70
2018-02-21T02:45:48.936Z,29.93
2018-02-21T02:48:17.452Z,33.73
2018-02-21T02:50:46.373Z,35.20
2018-02-21T02:53:14.855Z,34.13
2018-02-21T02:55:43.433Z,35.07
2018-02-21T02:58:12.276Z,34.77
2018-02-21T03:00:40.966Z,34.70
2018-02-21T03:03:09.087Z,33.70
2018-02-21T03:05:36.946Z,32.57
2018-02-21T03:08:04.806Z,31.10
2018-02-21T03:10:33.526Z,33.67
2018-02-21T03:13:02.026Z,32.17
2018-02-21T03:15:30.467Z,35.70
2018-02-21T03:17:58.697Z,34.87
2018-02-21T03:20:26.546Z,37.20
2018-02-21T03:22:54.667Z,36.23
2018-02-21T03:25:22.446Z,34.37
2018-02-21T03:27:50.428Z,35.63
2018-02-21T03:30:18.310Z,35.73
2018-02-21T03:32:46.366Z,36.93
2018-02-21T03:35:14.206Z,40.97
2018-02-21T03:37:42.175Z,34.10
2018-02-21T03:40:10.146Z,33.17
2018-02-21T03:42:37.987Z,36.40
2018-02-21T03:45:06.086Z,34.70
2018-02-21T03:47:34.365Z,34.60
2018-02-21T03:50:02.306Z,34.10
2018-02-21T03:52:31.087Z,34.03
2018-02-21T03:54:59.006Z,34.43
2018-02-21T03:57:27.067Z,33.87
2018-02-21T03:59:55.256Z,30.73
2018-02-21T04:02:23.130Z,30.53
2018-02-21T04:04:50.949Z,32.60
2018-02-21T04:07:19.611Z,31.63
2018-02-21T04:09:47.810Z,33.07
2018-02-21T04:12:17.250Z,32.97
2018-02-21T04:14:45.730Z,32.10
2018-02-21T04:17:13.610Z,32.10
2018-02-21T04:19:41.569Z,31.60
2018-02-21T04:22:10.170Z,27.03
2018-02-21T04:24:38.311Z,26.37
2018-02-21T04:27:06.490Z,27.63
2018-02-21T04:29:34.450Z,29.57
2018-02-21T04:32:02.390Z,30.67
2018-02-21T04:34:30.678Z,30.90
2018-02-21T04:36:58.569Z,29.70
2018-02-21T04:39:26.410Z,32.37
2018-02-21T04:41:54.650Z,31.90
2018-02-21T04:44:23.530Z,24.87
2018-02-21T04:46:51.490Z,26.77
2018-02-21T04:49:20.748Z,30.30
2018-02-21T04:51:49.490Z,34.63
2018-02-21T04:57:27.010Z,31.60
2018-02-21T05:00:02.231Z,31.03
2018-02-21T05:02:30.707Z,32.43
2018-02-21T05:04:59.207Z,27.77
2018-02-21T05:07:28.191Z,27.93
2018-02-21T05:09:56.453Z,27.97
2018-02-21T05:12:24.709Z,27.30
2018-02-21T05:14:52.994Z,26.70
2018-02-21T05:17:21.188Z,27.30
2018-02-21T05:19:49.768Z,26.63
2018-02-21T05:22:18.568Z,23.83
2018-02-21T05:24:46.509Z,23.97
2018-02-21T05:27:14.468Z,27.67
2018-02-21T05:29:42.488Z,26.30
2018-02-21T05:32:10.529Z,28.57
2018-02-21T05:34:39.290Z,22.23
2018-02-21T05:37:07.488Z,19.80
2018-02-21T05:39:35.748Z,21.87
2018-02-21T05:42:05.908Z,23.37
2018-02-21T05:44:33.811Z,30.60
2018-02-21T05:47:02.388Z,30.13
2018-02-21T05:49:31.488Z,31.87
2018-02-21T05:51:59.348Z,32.63
2018-02-21T05:54:27.488Z,30.17
2018-02-21T05:56:55.737Z,28.53
2018-02-21T05:59:25.130Z,29.10
2018-02-21T06:01:52.987Z,22.47
2018-02-21T06:04:21.086Z,21.50
2018-02-21T06:06:49.267Z,30.87
2018-02-21T06:09:17.914Z,31.13
2018-02-21T06:11:46.606Z,30.70
2018-02-21T06:14:14.615Z,30.70
2018-02-21T06:16:42.868Z,31.30
2018-02-21T06:19:11.526Z,26.47
2018-02-21T06:21:39.506Z,21.83
2018-02-21T06:24:07.610Z,23.23
2018-02-21T06:26:35.447Z,20.40
2018-02-21T06:29:03.966Z,24.17
2018-02-21T06:31:31.926Z,21.93
2018-02-21T06:33:59.955Z,20.47
2018-02-21T06:36:28.086Z,21.47
2018-02-21T06:38:56.767Z,25.33
2018-02-21T06:41:25.487Z,24.00
2018-02-21T06:43:53.481Z,33.73
2018-02-21T06:46:22.146Z,36.63
2018-02-21T06:48:50.606Z,38.97
2018-02-21T06:51:19.786Z,40.93
2018-02-21T06:53:48.446Z,40.83
2018-02-21T06:56:16.331Z,41.13
2018-02-21T06:58:44.171Z,36.90
2018-02-21T07:01:12.033Z,37.40
2018-02-21T07:03:40.395Z,35.67
2018-02-21T07:06:08.374Z,34.37
2018-02-21T07:08:36.591Z,33.47
2018-02-21T07:11:04.368Z,33.77
2018-02-21T07:13:32.267Z,35.17
2018-02-21T07:16:00.907Z,34.80
2018-02-21T07:18:30.038Z,34.03
2018-02-21T07:20:57.806Z,35.43
2018-02-21T07:23:25.826Z,35.90
2018-02-21T07:25:53.626Z,33.90
2018-02-21T07:28:21.806Z,35.87
2018-02-21T07:30:50.528Z,33.87
2018-02-21T07:33:18.407Z,33.63
2018-02-21T07:35:46.230Z,35.47
2018-02-21T07:38:14.808Z,32.57
2018-02-21T07:40:43.508Z,33.30
2018-02-21T07:43:11.347Z,36.33
2018-02-21T07:45:39.187Z,35.57
2018-02-21T07:48:07.127Z,35.27
2018-02-21T07:50:35.087Z,34.83
2018-02-21T07:53:02.947Z,38.83
2018-02-21T07:55:30.847Z,38.63
2018-02-21T07:57:59.972Z,38.10
2018-02-21T08:00:27.683Z,39.70
2018-02-21T08:02:55.610Z,36.87
2018-02-21T08:05:23.507Z,36.60
2018-02-21T08:07:51.568Z,37.13
2018-02-21T08:10:19.390Z,31.77
2018-02-21T08:12:47.328Z,31.23
2018-02-21T08:15:15.508Z,33.67
2018-02-21T08:17:44.868Z,31.20
2018-02-21T08:20:13.447Z,33.83
2018-02-21T08:22:41.348Z,35.47
2018-02-21T08:25:10.187Z,35.13
2018-02-21T08:30:10.950Z,32.93
2018-02-21T08:32:39.127Z,33.33
2018-02-21T08:35:07.247Z,31.87
2018-02-21T08:37:36.068Z,34.23
2018-02-21T08:40:03.890Z,35.13
2018-02-21T08:42:31.625Z,36.13
2018-02-21T08:44:59.487Z,36.80
2018-02-21T08:47:28.906Z,34.17
2018-02-21T08:49:56.887Z,36.53
2018-02-21T08:52:24.808Z,37.03
2018-02-21T08:54:52.605Z,37.17
2018-02-21T08:57:21.486Z,37.87
2018-02-21T08:59:49.306Z,39.57
2018-02-21T09:04:49.189Z,34.43
2018-02-21T09:07:17.089Z,34.20
2018-02-21T09:09:45.011Z,33.57
2018-02-21T09:12:12.772Z,34.30
2018-02-21T09:14:40.650Z,35.50
2018-02-21T09:17:08.390Z,34.90
2018-02-21T09:19:36.370Z,34.43
2018-02-21T09:22:04.310Z,33.57
2018-02-21T09:24:32.655Z,34.03
2018-02-21T09:27:00.467Z,32.97
2018-02-21T09:29:28.868Z,34.80
2018-02-21T09:31:57.408Z,33.57
2018-02-21T09:34:25.527Z,31.63
2018-02-21T09:36:53.447Z,31.77
2018-02-21T09:39:21.688Z,31.27
2018-02-21T09:41:49.568Z,31.17
2018-02-21T09:44:17.348Z,31.27
2018-02-21T09:46:45.127Z,31.97
2018-02-21T09:49:12.989Z,31.70
2018-02-21T09:51:40.903Z,32.90
2018-02-21T09:54:08.726Z,30.37
2018-02-21T09:56:36.646Z,33.90
2018-02-21T09:59:04.526Z,34.67
2018-02-21T10:01:34.066Z,34.43
2018-02-21T10:04:01.989Z,33.50
2018-02-21T10:06:30.047Z,32.37
2018-02-21T10:08:58.606Z,33.00
2018-02-21T10:11:27.713Z,33.07
2018-02-21T10:13:55.807Z,32.50
2018-02-21T10:16:23.727Z,31.70
2018-02-21T10:18:51.806Z,29.77
2018-02-21T10:21:21.253Z,30.27
2018-02-21T10:23:49.187Z,30.13
2018-02-21T10:26:17.026Z,32.60
2018-02-21T10:31:16.906Z,31.07
2018-02-21T10:33:44.828Z,30.47
2018-02-21T10:36:12.968Z,31.30
2018-02-21T10:38:40.686Z,30.27
2018-02-21T10:41:08.607Z,29.77
2018-02-21T10:43:37.247Z,30.70
2018-02-21T10:46:05.166Z,31.03
2018-02-21T10:48:33.005Z,29.37
2018-02-21T10:51:00.945Z,29.23
2018-02-21T10:53:28.707Z,29.83
2018-02-21T10:55:56.527Z,31.10
2018-02-21T10:58:24.366Z,29.73
2018-02-21T11:00:57.890Z,27.53
2018-02-21T11:03:26.466Z,30.00
2018-02-21T11:05:54.587Z,28.40
2018-02-21T11:08:22.467Z,27.83
2018-02-21T11:10:50.285Z,30.33
2018-02-21T11:13:18.108Z,29.90
2018-02-21T11:15:46.206Z,29.27
2018-02-21T11:18:14.413Z,28.40
2018-02-21T11:20:42.445Z,30.07
2018-02-21T11:23:10.405Z,28.20
2018-02-21T11:25:38.525Z,30.63
2018-02-21T11:28:06.525Z,29.57
2018-02-21T11:30:35.030Z,28.73
2018-02-21T11:33:02.845Z,29.10
2018-02-21T11:35:30.725Z,30.20
2018-02-21T11:37:59.340Z,30.60
2018-02-21T11:40:27.136Z,27.17
2018-02-21T11:42:54.905Z,27.07
2018-02-21T11:45:22.629Z,23.77
2018-02-21T11:47:50.427Z,24.90
2018-02-21T11:50:18.466Z,26.67
2018-02-21T11:52:47.327Z,25.83
2018-02-21T11:57:47.326Z,27.40
2018-02-21T12:00:15.246Z,29.33
2018-02-21T12:02:43.117Z,28.30
2018-02-21T12:05:11.006Z,27.47
2018-02-21T12:07:39.089Z,26.57
2018-02-21T12:10:07.728Z,23.03
2018-02-21T12:12:35.630Z,26.57
2018-02-21T12:15:03.552Z,29.07
2018-02-21T12:17:32.167Z,28.27
2018-02-21T12:20:00.306Z,26.57
2018-02-21T12:22:28.806Z,26.50
2018-02-21T12:24:58.068Z,25.40
2018-02-21T12:27:25.926Z,26.57
2018-02-21T12:29:53.807Z,25.03
2018-02-21T12:35:25.167Z,27.93
2018-02-21T12:37:53.046Z,26.83
2018-02-21T12:40:26.426Z,27.37
2018-02-21T12:42:54.350Z,28.17
2018-02-21T12:45:22.187Z,25.60
2018-02-21T12:47:50.228Z,26.53
2018-02-21T12:50:18.541Z,26.03
2018-02-21T12:52:47.974Z,27.70
2018-02-21T12:55:15.891Z,27.80
2018-02-21T12:57:43.871Z,28.37
2018-02-21T13:00:14.875Z,28.80
2018-02-21T13:02:42.946Z,28.80
2018-02-21T13:05:11.067Z,29.20
2018-02-21T13:07:39.195Z,28.37
2018-02-21T13:10:07.029Z,29.40
2018-02-21T13:12:34.906Z,29.07
2018-02-21T13:15:04.568Z,30.00
2018-02-21T13:17:32.447Z,29.93
2018-02-21T13:20:00.606Z,27.87
2018-02-21T13:22:28.446Z,27.73
2018-02-21T13:24:56.426Z,25.30
2018-02-21T13:27:24.327Z,24.90
2018-02-21T13:29:52.127Z,27.47
2018-02-21T13:32:20.305Z,27.50
2018-02-21T13:34:48.190Z,27.60
2018-02-21T13:37:16.206Z,27.67
2018-02-21T13:39:44.286Z,26.27
2018-02-21T13:42:12.412Z,29.10
2018-02-21T13:44:40.615Z,29.07
2018-02-21T13:47:08.812Z,28.10
2018-02-21T13:49:36.873Z,26.17
2018-02-21T13:52:05.096Z,25.53
2018-02-21T13:54:32.997Z,24.90
2018-02-21T13:57:01.183Z,24.67
2018-02-21T13:59:29.572Z,24.83
2018-02-21T14:01:57.367Z,24.50
2018-02-21T14:04:26.147Z,24.97
2018-02-21T14:06:54.035Z,24.07
2018-02-21T14:09:22.228Z,24.63
2018-02-21T14:11:50.153Z,27.50
2018-02-21T14:14:18.033Z,24.13
2018-02-21T14:16:45.871Z,25.83
2018-02-21T14:19:15.906Z,25.67
2018-02-21T14:21:43.947Z,26.27
2018-02-21T14:24:12.091Z,26.00
2018-02-21T14:26:39.967Z,26.07
2018-02-21T14:29:07.828Z,27.20
2018-02-21T14:31:36.287Z,26.17
2018-02-21T14:34:03.891Z,26.10
2018-02-21T14:36:31.498Z,29.97
2018-02-21T14:38:59.130Z,29.30
2018-02-21T14:41:26.756Z,29.73
2018-02-21T14:43:54.424Z,32.13
2018-02-21T14:46:22.017Z,39.03
2018-02-21T14:48:49.639Z,30.30
2018-02-21T14:51:17.298Z,30.33
2018-02-21T14:53:44.892Z,26.50
2018-02-21T14:56:13.032Z,26.20
2018-02-21T14:58:40.706Z,24.47
2018-02-21T15:01:08.344Z,26.07
2018-02-21T15:03:35.996Z,28.47
2018-02-21T15:06:04.170Z,27.73
2018-02-21T15:08:32.007Z,28.00
2018-02-21T15:10:59.950Z,26.67
2018-02-21T15:13:27.748Z,27.50
2018-02-21T15:15:55.608Z,28.80
2018-02-21T15:18:23.647Z,27.80
2018-02-21T15:20:51.493Z,26.53
2018-02-21T15:23:19.450Z,28.63
2018-02-21T15:25:47.327Z,29.03
2018-02-21T15:28:15.268Z,29.20
2018-02-21T15:30:43.396Z,29.43
2018-02-21T15:33:11.348Z,30.20
2018-02-21T15:35:39.187Z,29.97
2018-02-21T15:38:08.549Z,30.30
2018-02-21T15:40:36.772Z,30.17
2018-02-21T15:43:04.650Z,29.90
2018-02-21T15:45:32.489Z,30.23
2018-02-21T15:48:00.427Z,34.00
2018-02-21T15:50:28.578Z,36.87
2018-02-21T15:52:56.488Z,34.13
2018-02-21T15:55:24.448Z,33.17
2018-02-21T15:57:53.028Z,34.17
2018-02-21T16:00:20.737Z,34.00
2018-02-21T16:02:48.876Z,33.03
2018-02-21T16:05:17.287Z,32.03
2018-02-21T16:07:46.406Z,33.47
2018-02-21T16:10:14.326Z,32.97
2018-02-21T16:12:42.553Z,35.37
2018-02-21T16:15:11.132Z,33.30
2018-02-21T16:17:39.174Z,33.93
2018-02-21T16:20:07.092Z,32.47
2018-02-21T16:22:34.934Z,36.03
2018-02-21T16:25:02.731Z,35.00
2018-02-21T16:27:30.855Z,36.27
2018-02-21T16:29:58.730Z,54.73
2018-02-21T16:32:27.891Z,57.40
2018-02-21T16:34:55.850Z,55.97
2018-02-21T16:37:23.690Z,51.57
2018-02-21T16:39:52.351Z,48.73
2018-02-21T16:42:20.232Z,46.17
2018-02-21T16:44:48.091Z,44.60
2018-02-21T16:47:16.171Z,46.13
2018-02-21T16:49:43.952Z,44.30
2018-02-21T16:52:11.933Z,42.70
2018-02-21T16:54:40.312Z,41.97
2018-02-21T16:57:08.412Z,37.60
2018-02-21T16:59:36.689Z,36.57
2018-02-21T17:02:04.827Z,38.63
2018-02-21T17:04:32.931Z,38.77
2018-02-21T17:07:00.889Z,37.60
2018-02-21T17:09:28.808Z,36.53
2018-02-21T17:11:57.687Z,37.00
2018-02-21T17:14:25.827Z,34.57
2018-02-21T17:16:53.608Z,34.50
2018-02-21T17:19:21.629Z,33.73
2018-02-21T17:21:50.472Z,34.33
2018-02-21T17:24:18.851Z,34.90
2018-02-21T17:26:46.691Z,36.33
2018-02-21T17:29:14.807Z,36.63
2018-02-21T17:31:43.387Z,36.17
2018-02-21T17:34:11.490Z,37.30
2018-02-21T17:36:39.309Z,35.27
2018-02-21T17:39:07.288Z,37.60
2018-02-21T17:41:35.188Z,41.97
2018-02-21T17:44:03.009Z,43.83
2018-02-21T17:46:32.543Z,43.23
2018-02-21T17:49:00.651Z,43.23
2018-02-21T17:51:28.648Z,42.27
2018-02-21T17:53:56.789Z,42.27
2018-02-21T17:56:24.647Z,41.93
2018-02-21T17:58:53.046Z,42.73
2018-02-21T18:01:20.889Z,44.13
2018-02-21T18:03:49.449Z,40.37
2018-02-21T18:06:17.368Z,40.80
2018-02-21T18:08:45.328Z,39.93
2018-02-21T18:11:13.169Z,41.70
2018-02-21T18:13:41.029Z,40.37
2018-02-21T18:16:08.985Z,42.50
2018-02-21T18:18:36.924Z,47.57
2018-02-21T18:21:04.805Z,45.10
2018-02-21T18:23:33.068Z,43.73
2018-02-21T18:26:00.891Z,43.30
2018-02-21T18:28:28.665Z,42.73
2018-02-21T18:30:56.605Z,42.60
2018-02-21T18:33:24.367Z,46.30
2018-02-21T18:35:52.456Z,43.93
2018-02-21T18:38:20.209Z,44.47
2018-02-21T18:40:47.987Z,47.73
2018-02-21T18:43:16.768Z,47.27
2018-02-21T18:45:44.612Z,49.47
2018-02-21T18:48:12.446Z,47.47
2018-02-21T18:50:40.296Z,45.67
2018-02-21T18:53:09.512Z,45.13
2018-02-21T18:55:37.766Z,46.07
2018-02-21T18:58:05.531Z,45.83
2018-02-21T19:00:33.388Z,43.43
2018-02-21T19:03:01.446Z,43.97
2018-02-21T19:05:29.246Z,47.47
2018-02-21T19:07:57.025Z,46.33
2018-02-21T19:10:24.925Z,46.03
2018-02-21T19:12:53.046Z,42.93
2018-02-21T19:15:20.826Z,43.63
2018-02-21T19:17:48.730Z,44.17
2018-02-21T19:20:16.507Z,43.07
2018-02-21T19:22:44.448Z,40.40
2018-02-21T19:25:12.316Z,45.03
2018-02-21T19:27:40.010Z,43.67
2018-02-21T19:30:07.739Z,40.10
2018-02-21T19:32:35.632Z,41.17
2018-02-21T19:35:03.371Z,41.27
2018-02-21T19:37:32.011Z,38.43
2018-02-21T19:39:59.833Z,37.77
2018-02-21T19:42:28.017Z,40.97
2018-02-21T19:44:55.811Z,39.37
2018-02-21T19:47:23.572Z,40.10
2018-02-21T19:49:51.367Z,41.27
2018-02-21T19:52:20.756Z,40.30
2018-02-21T19:54:48.653Z,40.70
2018-02-21T19:57:16.449Z,40.43
2018-02-21T19:59:44.657Z,38.17
2018-02-21T20:02:12.512Z,37.40
2018-02-21T20:04:40.610Z,40.73
2018-02-21T20:07:08.430Z,35.23
2018-02-21T20:09:36.428Z,36.17
2018-02-21T20:12:04.628Z,40.17
2018-02-21T20:14:32.429Z,40.63
2018-02-21T20:17:01.207Z,40.27
2018-02-21T20:19:29.368Z,38.23
2018-02-21T20:21:57.268Z,40.10
2018-02-21T20:24:25.087Z,42.07
2018-02-21T20:26:52.947Z,48.50
2018-02-21T20:29:20.807Z,49.53
2018-02-21T20:31:48.627Z,51.53
2018-02-21T20:34:16.667Z,49.57
2018-02-21T20:36:44.568Z,47.23
2018-02-21T20:39:12.586Z,45.63
2018-02-21T20:41:40.726Z,40.60
2018-02-21T20:44:08.606Z,45.43
2018-02-21T20:49:08.369Z,42.93
2018-02-21T20:51:36.989Z,45.07
2018-02-21T20:54:04.867Z,44.93
2018-02-21T20:56:32.711Z,45.27
2018-02-21T20:59:00.649Z,39.53
2018-02-21T21:01:28.614Z,41.00
2018-02-21T21:03:56.447Z,44.57
2018-02-21T21:06:24.289Z,46.63
2018-02-21T21:08:52.208Z,47.70
2018-02-21T21:11:21.075Z,47.03
2018-02-21T21:13:49.092Z,42.77
2018-02-21T21:16:17.344Z,44.00
2018-02-21T21:18:45.195Z,47.53
2018-02-21T21:21:13.092Z,46.53
2018-02-21T21:23:41.007Z,46.87
2018-02-21T21:26:08.936Z,44.77
2018-02-21T21:28:37.050Z,46.73
2018-02-21T21:31:04.957Z,55.20
2018-02-21T21:33:33.050Z,56.73
2018-02-21T21:36:01.890Z,48.53
2018-02-21T21:38:32.174Z,46.90
2018-02-21T21:41:01.430Z,48.87
2018-02-21T21:43:29.148Z,49.17
2018-02-21T21:45:56.911Z,48.37
2018-02-21T21:48:24.768Z,43.17
2018-02-21T21:50:53.288Z,41.63
2018-02-21T21:53:21.072Z,46.67
2018-02-21T21:55:48.830Z,44.67
2018-02-21T21:58:16.572Z,42.90
2018-02-21T22:00:44.892Z,45.60
2018-02-21T22:03:12.654Z,45.03
2018-02-21T22:05:40.376Z,41.53
2018-02-21T22:08:08.210Z,44.63
2018-02-21T22:10:36.190Z,44.23
2018-02-21T22:13:03.971Z,46.57
2018-02-21T22:15:31.771Z,47.60
2018-02-21T22:17:59.513Z,45.43
2018-02-21T22:20:27.367Z,47.20
2018-02-21T22:22:55.169Z,48.77
2018-02-21T22:25:22.949Z,46.23
2018-02-21T22:27:50.729Z,47.03
2018-02-21T22:30:21.176Z,46.47
2018-02-21T22:32:48.985Z,41.43
2018-02-21T22:35:17.013Z,47.87
2018-02-21T22:37:45.294Z,47.00
2018-02-21T22:40:13.088Z,47.27
2018-02-21T22:42:41.253Z,46.60
2018-02-21T22:45:09.166Z,46.40
2018-02-21T22:47:37.766Z,47.97
2018-02-21T22:50:06.150Z,47.73
2018-02-21T22:52:34.367Z,49.00
2018-02-21T22:55:02.127Z,49.53
2018-02-21T22:57:29.967Z,47.37
2018-02-21T22:59:57.987Z,47.77
2018-02-21T23:02:25.855Z,46.40
2018-02-21T23:04:53.975Z,47.07
2018-02-21T23:07:22.156Z,46.93
2018-02-21T23:09:50.282Z,49.20
2018-02-21T23:12:18.074Z,47.47
2018-02-21T23:14:45.955Z,49.90
2018-02-21T23:17:13.775Z,52.20
2018-02-21T23:19:41.615Z,53.50
2018-02-21T23:22:09.595Z,53.33
2018-02-21T23:24:37.394Z,52.70
2018-02-21T23:27:05.174Z,55.77
2018-02-21T23:29:33.054Z,54.10
2018-02-21T23:32:01.355Z,52.97
2018-02-21T23:34:29.715Z,53.10
2018-02-21T23:36:57.654Z,52.00
2018-02-21T23:39:25.575Z,50.50
2018-02-21T23:41:53.575Z,52.47
2018-02-21T23:44:21.495Z,53.60
2018-02-21T23:46:51.169Z,52.70
2018-02-21T23:49:19.128Z,52.93
2018-02-21T23:51:47.027Z,53.97
2018-02-21T23:54:15.048Z,54.30
2018-02-21T23:56:42.968Z,52.27
2018-02-21T23:59:10.808Z,53.27
